Decoded Metar for CYXS (PRINCE GEORGE in BC, CANADA) (IATA:YXS) | Meteo·Mobile Aviation Weather
aviador You're here:

CYXS Decoded Metar

PRINCE GEORGE in BC, CANADA
Report Time2020-02-18 22:00:00
UTC Time2020-02-18 22:57:22
Flight Rules vfr VFR
Wind160° at 09 kt
W.Decomp.*RWY 15: 8.8 kt HW 1.7 kt LCW
RWY 19: 5.7 kt HW 7 kt LCW
RWY 06: 1.7 kt HW 8.8 kt RCW
Visibility9999 m
Phenomena:N/A
Clouds:N/A
Expected CloudBase > 2,800 ft AGL from Temp-Dew spread
CeilingNone
Temp-1°C (ISA -12)
Dew Point-8°C (59% RH)
AAT-7.1°C
QNH1025 hPa
Density Alt515 ft
Elevation2,267 ft
Report Wrong Elevation
Raw Report
CYXS 182200Z AUTO 16009KT 9SM CLR M01/M08 A3028 RMK SLP295=

Extra information for CYXS:More info

Metar Taf Metar & Taf Last 4 Metars F.Rules Stats Wind Profile Meteogram Temp Stats Airport Information Weather charts Add Link Nearby VenuesMetar ALERT Operation Metar Decoded Social comments